THY8RW LTFM-LTAR
Flight info
| Callsign | THY8RW |
|---|---|
| Flight time | 1h 4m |
| Altitude | 37000 |
| Route | VICEN UT380 ASMAP UL333 LATGA UT363 GURBU UL615 OLPOT |
| Aircraft | A320/M-SDE3FGHIRWY/LB1 |
Departure
| Time | 2026-04-26 15:01 |
|---|---|
| Airport | İstanbul Airport (LTFM) |
Arrival
| Time | 2026-04-26 16:05 |
|---|---|
| Airport | Sivas Nuri Demirağ Airport (LTAR) |
| Time | Latitude | Longitude | Altitude | Speed | Heading |
|---|---|---|---|---|---|
| 2026-04-26 14:16 | 41.26201 | 28.74829 | 314 ft | 0 kts | 251° |
| 2026-04-26 14:47 | 41.26204 | 28.74840 | 313 ft | 4 kts | 254° |
| 2026-04-26 14:47 | 41.26210 | 28.74873 | 313 ft | 4 kts | 265° |
| 2026-04-26 14:47 | 41.26209 | 28.74907 | 312 ft | 4 kts | 279° |
| 2026-04-26 14:47 | 41.26203 | 28.74940 | 313 ft | 4 kts | 294° |
| 2026-04-26 14:48 | 41.26191 | 28.74969 | 313 ft | 4 kts | 313° |
| 2026-04-26 14:48 | 41.26173 | 28.74988 | 313 ft | 1 kts | 341° |
| 2026-04-26 14:48 | 41.26172 | 28.74988 | 313 ft | 0 kts | 341° |
| 2026-04-26 14:51 | 41.26175 | 28.74987 | 313 ft | 1 kts | 341° |
| 2026-04-26 14:51 | 41.26191 | 28.74982 | 313 ft | 3 kts | 352° |
| 2026-04-26 14:52 | 41.26217 | 28.74990 | 313 ft | 5 kts | 26° |
| 2026-04-26 14:52 | 41.26238 | 28.75032 | 313 ft | 6 kts | 77° |
| 2026-04-26 14:52 | 41.26240 | 28.75099 | 313 ft | 8 kts | 89° |
| 2026-04-26 14:52 | 41.26241 | 28.75182 | 313 ft | 10 kts | 88° |
| 2026-04-26 14:53 | 41.26242 | 28.75275 | 314 ft | 11 kts | 90° |
| 2026-04-26 14:53 | 41.26261 | 28.75364 | 313 ft | 10 kts | 43° |
| 2026-04-26 14:53 | 41.26337 | 28.75380 | 313 ft | 12 kts | 360° |
| 2026-04-26 14:53 | 41.26431 | 28.75379 | 313 ft | 15 kts | 359° |
| 2026-04-26 14:54 | 41.26542 | 28.75377 | 312 ft | 17 kts | 359° |
| 2026-04-26 14:54 | 41.26626 | 28.75376 | 311 ft | 18 kts | 359° |
| 2026-04-26 14:54 | 41.26748 | 28.75374 | 311 ft | 17 kts | 359° |
| 2026-04-26 14:54 | 41.26853 | 28.75372 | 308 ft | 13 kts | 359° |
| 2026-04-26 14:55 | 41.26949 | 28.75371 | 307 ft | 15 kts | 359° |
| 2026-04-26 14:55 | 41.27062 | 28.75369 | 307 ft | 18 kts | 359° |
| 2026-04-26 14:55 | 41.27188 | 28.75367 | 303 ft | 19 kts | 359° |
| 2026-04-26 14:55 | 41.27304 | 28.75366 | 303 ft | 15 kts | 359° |
| 2026-04-26 14:56 | 41.27423 | 28.75364 | 301 ft | 17 kts | 359° |
| 2026-04-26 14:56 | 41.27544 | 28.75362 | 295 ft | 18 kts | 359° |
| 2026-04-26 14:56 | 41.27657 | 28.75361 | 293 ft | 17 kts | 359° |
| 2026-04-26 14:56 | 41.27793 | 28.75358 | 283 ft | 22 kts | 0° |
| 2026-04-26 14:57 | 41.27954 | 28.75356 | 275 ft | 24 kts | 359° |
| 2026-04-26 14:57 | 41.28109 | 28.75355 | 268 ft | 23 kts | 359° |
| 2026-04-26 14:57 | 41.28275 | 28.75352 | 260 ft | 26 kts | 359° |
| 2026-04-26 14:57 | 41.28454 | 28.75350 | 252 ft | 26 kts | 359° |
| 2026-04-26 14:58 | 41.28650 | 28.75347 | 242 ft | 28 kts | 359° |
| 2026-04-26 14:58 | 41.28816 | 28.75345 | 237 ft | 19 kts | 359° |
| 2026-04-26 14:58 | 41.28934 | 28.75347 | 230 ft | 13 kts | 11° |
| 2026-04-26 14:58 | 41.28977 | 28.75411 | 231 ft | 9 kts | 81° |
| 2026-04-26 14:59 | 41.28977 | 28.75500 | 229 ft | 10 kts | 90° |
| 2026-04-26 14:59 | 41.28975 | 28.75599 | 230 ft | 9 kts | 104° |
| 2026-04-26 14:59 | 41.28936 | 28.75630 | 232 ft | 3 kts | 178° |
| 2026-04-26 14:59 | 41.28934 | 28.75630 | 232 ft | 0 kts | 178° |
| 2026-04-26 15:00 | 41.28775 | 28.75633 | 237 ft | 56 kts | 180° |
| 2026-04-26 15:00 | 41.28175 | 28.75639 | 263 ft | 112 kts | 180° |
| 2026-04-26 15:00 | 41.27253 | 28.75660 | 304 ft | 153 kts | 182° |
| 2026-04-26 15:00 | 41.26178 | 28.75673 | 853 ft | 150 kts | 181° |
| 2026-04-26 15:01 | 41.25153 | 28.75931 | 1462 ft | 154 kts | 155° |
| 2026-04-26 15:01 | 41.24338 | 28.76913 | 1989 ft | 165 kts | 137° |
| 2026-04-26 15:01 | 41.23444 | 28.78003 | 2220 ft | 185 kts | 147° |
| 2026-04-26 15:01 | 41.22307 | 28.79014 | 2531 ft | 208 kts | 150° |
| 2026-04-26 15:02 | 41.21016 | 28.80091 | 2847 ft | 233 kts | 150° |
| 2026-04-26 15:02 | 41.19578 | 28.81282 | 3306 ft | 255 kts | 150° |
| 2026-04-26 15:02 | 41.17898 | 28.82197 | 3916 ft | 266 kts | 174° |
| 2026-04-26 15:02 | 41.16035 | 28.82208 | 4759 ft | 272 kts | 185° |
| 2026-04-26 15:03 | 41.14211 | 28.82090 | 5642 ft | 274 kts | 185° |
| 2026-04-26 15:03 | 41.12283 | 28.81958 | 6518 ft | 279 kts | 186° |
| 2026-04-26 15:03 | 41.10364 | 28.81822 | 7370 ft | 282 kts | 185° |
| 2026-04-26 15:03 | 41.08419 | 28.81690 | 8180 ft | 285 kts | 185° |
| 2026-04-26 15:04 | 41.06461 | 28.81563 | 8980 ft | 288 kts | 185° |
| 2026-04-26 15:04 | 41.04473 | 28.81439 | 9747 ft | 292 kts | 185° |
| 2026-04-26 15:04 | 41.02420 | 28.81314 | 10396 ft | 302 kts | 185° |
| 2026-04-26 15:04 | 41.00237 | 28.81395 | 10599 ft | 328 kts | 171° |
| 2026-04-26 15:05 | 40.98089 | 28.82606 | 10937 ft | 347 kts | 144° |
| 2026-04-26 15:05 | 40.96913 | 28.84132 | 11324 ft | 354 kts | 127° |
| 2026-04-26 15:05 | 40.95714 | 28.88149 | 12187 ft | 361 kts | 102° |
| 2026-04-26 15:05 | 40.95145 | 28.91394 | 12854 ft | 364 kts | 104° |
| 2026-04-26 15:06 | 40.94509 | 28.94644 | 13498 ft | 367 kts | 105° |
| 2026-04-26 15:06 | 40.93833 | 28.97915 | 14133 ft | 370 kts | 105° |
| 2026-04-26 15:06 | 40.93143 | 29.01205 | 14745 ft | 373 kts | 105° |
| 2026-04-26 15:06 | 40.92451 | 29.04531 | 15360 ft | 376 kts | 105° |
| 2026-04-26 15:07 | 40.91085 | 29.11254 | 16528 ft | 382 kts | 105° |
| 2026-04-26 15:07 | 40.90406 | 29.14641 | 17112 ft | 384 kts | 105° |
| 2026-04-26 15:07 | 40.89716 | 29.18086 | 17693 ft | 387 kts | 104° |
| 2026-04-26 15:08 | 40.89024 | 29.21539 | 18259 ft | 390 kts | 104° |
| 2026-04-26 15:08 | 40.88326 | 29.25022 | 18831 ft | 394 kts | 104° |
| 2026-04-26 15:08 | 40.87609 | 29.28578 | 19403 ft | 397 kts | 105° |
| 2026-04-26 15:08 | 40.86892 | 29.32112 | 19981 ft | 400 kts | 105° |
| 2026-04-26 15:09 | 40.86169 | 29.35671 | 20572 ft | 402 kts | 105° |
| 2026-04-26 15:09 | 40.85441 | 29.39246 | 21086 ft | 405 kts | 105° |
| 2026-04-26 15:09 | 40.84706 | 29.42857 | 21614 ft | 408 kts | 105° |
| 2026-04-26 15:09 | 40.83968 | 29.46481 | 22114 ft | 410 kts | 105° |
| 2026-04-26 15:10 | 40.83228 | 29.50124 | 22605 ft | 413 kts | 105° |
| 2026-04-26 15:10 | 40.82735 | 29.52554 | 22917 ft | 415 kts | 104° |
| 2026-04-26 15:10 | 40.81726 | 29.57499 | 23534 ft | 418 kts | 105° |
| 2026-04-26 15:10 | 40.80961 | 29.61223 | 23989 ft | 421 kts | 105° |
| 2026-04-26 15:11 | 40.80190 | 29.64959 | 24433 ft | 423 kts | 105° |
| 2026-04-26 15:11 | 40.79416 | 29.68702 | 24870 ft | 424 kts | 105° |
| 2026-04-26 15:11 | 40.78639 | 29.72473 | 25256 ft | 427 kts | 104° |
| 2026-04-26 15:11 | 40.77855 | 29.76267 | 25665 ft | 429 kts | 105° |
| 2026-04-26 15:12 | 40.77065 | 29.80071 | 26059 ft | 431 kts | 104° |
| 2026-04-26 15:12 | 40.76272 | 29.83894 | 26432 ft | 434 kts | 104° |
| 2026-04-26 15:12 | 40.75470 | 29.87748 | 26786 ft | 436 kts | 104° |
| 2026-04-26 15:12 | 40.74663 | 29.91615 | 27112 ft | 439 kts | 104° |
| 2026-04-26 15:13 | 40.73850 | 29.95501 | 27449 ft | 441 kts | 104° |
| 2026-04-26 15:13 | 40.73036 | 29.99413 | 27787 ft | 443 kts | 104° |
| 2026-04-26 15:13 | 40.72219 | 30.03336 | 28142 ft | 445 kts | 104° |
| 2026-04-26 15:13 | 40.71393 | 30.07279 | 28488 ft | 446 kts | 104° |
| 2026-04-26 15:14 | 40.70563 | 30.11217 | 28818 ft | 448 kts | 104° |
| 2026-04-26 15:14 | 40.69725 | 30.15186 | 29146 ft | 450 kts | 104° |
| 2026-04-26 15:14 | 40.68885 | 30.19163 | 29474 ft | 452 kts | 104° |
| 2026-04-26 15:14 | 40.68040 | 30.23156 | 29792 ft | 453 kts | 104° |
| 2026-04-26 15:15 | 40.67188 | 30.27165 | 30116 ft | 454 kts | 104° |
| 2026-04-26 15:15 | 40.66496 | 30.31156 | 30530 ft | 452 kts | 97° |
| 2026-04-26 15:15 | 40.66136 | 30.35311 | 30942 ft | 450 kts | 94° |
| 2026-04-26 15:15 | 40.65808 | 30.39404 | 31330 ft | 450 kts | 94° |
| 2026-04-26 15:16 | 40.65475 | 30.43509 | 31718 ft | 451 kts | 94° |
| 2026-04-26 15:16 | 40.65136 | 30.47605 | 32136 ft | 450 kts | 95° |
| 2026-04-26 15:16 | 40.64790 | 30.51743 | 32524 ft | 449 kts | 95° |
| 2026-04-26 15:16 | 40.64448 | 30.55826 | 32909 ft | 448 kts | 95° |
| 2026-04-26 15:17 | 40.64101 | 30.59906 | 33271 ft | 448 kts | 95° |
| 2026-04-26 15:17 | 40.63869 | 30.62610 | 33508 ft | 448 kts | 95° |
| 2026-04-26 15:17 | 40.63400 | 30.68058 | 33993 ft | 447 kts | 95° |
| 2026-04-26 15:17 | 40.62918 | 30.72107 | 34328 ft | 448 kts | 102° |
| 2026-04-26 15:18 | 40.62106 | 30.76079 | 34649 ft | 449 kts | 104° |
| 2026-04-26 15:18 | 40.61272 | 30.80034 | 34957 ft | 449 kts | 104° |
| 2026-04-26 15:18 | 40.60435 | 30.83994 | 35276 ft | 448 kts | 104° |
| 2026-04-26 15:18 | 40.59602 | 30.87932 | 35545 ft | 448 kts | 104° |
| 2026-04-26 15:19 | 40.58762 | 30.91877 | 35836 ft | 448 kts | 104° |
| 2026-04-26 15:19 | 40.57919 | 30.95821 | 36105 ft | 448 kts | 104° |
| 2026-04-26 15:19 | 40.57079 | 30.99762 | 36357 ft | 448 kts | 104° |
| 2026-04-26 15:19 | 40.56236 | 31.03714 | 36606 ft | 448 kts | 105° |
| 2026-04-26 15:20 | 40.55395 | 31.07647 | 36853 ft | 448 kts | 105° |
| 2026-04-26 15:20 | 40.54551 | 31.11596 | 36963 ft | 449 kts | 105° |
| 2026-04-26 15:20 | 40.52847 | 31.19525 | 36982 ft | 451 kts | 105° |
| 2026-04-26 15:21 | 40.51150 | 31.27428 | 36981 ft | 449 kts | 105° |
| 2026-04-26 15:21 | 40.49448 | 31.35322 | 36981 ft | 448 kts | 105° |
| 2026-04-26 15:22 | 40.47737 | 31.43193 | 36979 ft | 448 kts | 105° |
| 2026-04-26 15:22 | 40.46013 | 31.51059 | 36986 ft | 448 kts | 105° |
| 2026-04-26 15:23 | 40.44295 | 31.58911 | 36989 ft | 448 kts | 105° |
| 2026-04-26 15:23 | 40.42577 | 31.66753 | 36994 ft | 448 kts | 105° |
| 2026-04-26 15:24 | 40.40852 | 31.74607 | 36998 ft | 447 kts | 105° |
| 2026-04-26 15:24 | 40.39131 | 31.82439 | 37000 ft | 447 kts | 105° |
| 2026-04-26 15:25 | 40.37674 | 31.88990 | 37000 ft | 447 kts | 105° |
| 2026-04-26 15:25 | 40.35634 | 31.98124 | 36999 ft | 446 kts | 105° |
| 2026-04-26 15:26 | 40.34174 | 32.04614 | 36999 ft | 446 kts | 106° |
| 2026-04-26 15:26 | 40.32442 | 32.12419 | 37001 ft | 446 kts | 104° |
| 2026-04-26 15:27 | 40.30889 | 32.20292 | 37000 ft | 446 kts | 103° |
| 2026-04-26 15:27 | 40.29396 | 32.28167 | 36998 ft | 446 kts | 103° |
| 2026-04-26 15:28 | 40.27859 | 32.36050 | 36998 ft | 446 kts | 104° |
| 2026-04-26 15:28 | 40.26280 | 32.43911 | 36999 ft | 446 kts | 104° |
| 2026-04-26 15:29 | 40.25624 | 32.47157 | 36999 ft | 446 kts | 104° |
| 2026-04-26 15:30 | 40.22633 | 32.62106 | 36995 ft | 445 kts | 104° |
| 2026-04-26 15:30 | 40.21059 | 32.69890 | 36994 ft | 445 kts | 104° |
| 2026-04-26 15:31 | 40.18670 | 32.81639 | 36991 ft | 446 kts | 105° |
| 2026-04-26 15:32 | 40.16521 | 32.92133 | 36986 ft | 447 kts | 105° |
| 2026-04-26 15:32 | 40.14879 | 33.01373 | 36986 ft | 447 kts | 95° |
| 2026-04-26 15:33 | 40.14908 | 33.09480 | 36984 ft | 447 kts | 87° |
| 2026-04-26 15:33 | 40.15161 | 33.17600 | 36984 ft | 447 kts | 88° |
| 2026-04-26 15:34 | 40.15391 | 33.25723 | 36985 ft | 447 kts | 88° |
| 2026-04-26 15:34 | 40.15609 | 33.33849 | 36990 ft | 447 kts | 88° |
| 2026-04-26 15:35 | 40.15823 | 33.41983 | 36992 ft | 448 kts | 88° |
| 2026-04-26 15:35 | 40.16037 | 33.50124 | 36995 ft | 448 kts | 88° |
| 2026-04-26 15:36 | 40.16246 | 33.58263 | 36995 ft | 448 kts | 89° |
| 2026-04-26 15:36 | 40.16456 | 33.66404 | 36994 ft | 448 kts | 89° |
| 2026-04-26 15:37 | 40.16653 | 33.74546 | 36994 ft | 448 kts | 89° |
| 2026-04-26 15:37 | 40.16765 | 33.82689 | 36990 ft | 447 kts | 94° |
| 2026-04-26 15:38 | 40.15827 | 33.90692 | 36988 ft | 445 kts | 101° |
| 2026-04-26 15:38 | 40.14738 | 33.98717 | 36986 ft | 446 kts | 100° |
| 2026-04-26 15:39 | 40.13867 | 34.06737 | 36984 ft | 446 kts | 98° |
| 2026-04-26 15:39 | 40.13211 | 34.13435 | 36986 ft | 447 kts | 98° |
| 2026-04-26 15:40 | 40.12228 | 34.22833 | 36987 ft | 446 kts | 99° |
| 2026-04-26 15:40 | 40.11331 | 34.30850 | 36982 ft | 446 kts | 99° |
| 2026-04-26 15:41 | 40.10430 | 34.38855 | 36975 ft | 446 kts | 99° |
| 2026-04-26 15:41 | 40.09531 | 34.46865 | 36972 ft | 446 kts | 99° |
| 2026-04-26 15:42 | 40.08634 | 34.54881 | 36972 ft | 446 kts | 99° |
| 2026-04-26 15:42 | 40.07734 | 34.62903 | 36971 ft | 447 kts | 99° |
| 2026-04-26 15:43 | 40.06815 | 34.70944 | 36969 ft | 448 kts | 99° |
| 2026-04-26 15:44 | 40.05435 | 34.83011 | 36922 ft | 449 kts | 100° |
| 2026-04-26 15:44 | 40.04510 | 34.91039 | 36420 ft | 446 kts | 100° |
| 2026-04-26 15:44 | 40.04045 | 34.95039 | 36168 ft | 446 kts | 100° |
| 2026-04-26 15:45 | 40.03108 | 35.03067 | 35673 ft | 449 kts | 100° |
| 2026-04-26 15:45 | 40.02634 | 35.07108 | 35420 ft | 451 kts | 100° |
| 2026-04-26 15:46 | 40.01683 | 35.15205 | 34849 ft | 452 kts | 100° |
| 2026-04-26 15:46 | 40.01204 | 35.19279 | 34057 ft | 456 kts | 101° |
| 2026-04-26 15:46 | 40.00712 | 35.23431 | 33166 ft | 460 kts | 101° |
| 2026-04-26 15:46 | 40.00387 | 35.26158 | 32581 ft | 462 kts | 101° |
| 2026-04-26 15:47 | 39.99727 | 35.31707 | 31637 ft | 459 kts | 101° |
| 2026-04-26 15:47 | 39.98766 | 35.39781 | 30882 ft | 443 kts | 102° |
| 2026-04-26 15:47 | 39.98279 | 35.43717 | 30386 ft | 439 kts | 102° |
| 2026-04-26 15:48 | 39.97780 | 35.47634 | 29855 ft | 435 kts | 102° |
| 2026-04-26 15:48 | 39.97279 | 35.51498 | 29334 ft | 431 kts | 102° |
| 2026-04-26 15:48 | 39.96780 | 35.55335 | 28795 ft | 428 kts | 102° |
| 2026-04-26 15:48 | 39.96287 | 35.59159 | 28241 ft | 426 kts | 102° |
| 2026-04-26 15:49 | 39.95800 | 35.62958 | 27693 ft | 424 kts | 102° |
| 2026-04-26 15:49 | 39.95318 | 35.66736 | 27143 ft | 422 kts | 102° |
| 2026-04-26 15:49 | 39.94840 | 35.70500 | 26599 ft | 420 kts | 102° |
| 2026-04-26 15:49 | 39.94363 | 35.74254 | 26075 ft | 418 kts | 102° |
| 2026-04-26 15:50 | 39.93889 | 35.77978 | 25552 ft | 416 kts | 102° |
| 2026-04-26 15:50 | 39.93411 | 35.81694 | 25034 ft | 415 kts | 102° |
| 2026-04-26 15:50 | 39.92931 | 35.85398 | 24549 ft | 413 kts | 102° |
| 2026-04-26 15:50 | 39.92451 | 35.89085 | 24062 ft | 412 kts | 102° |
| 2026-04-26 15:51 | 39.91970 | 35.92764 | 23604 ft | 411 kts | 102° |
| 2026-04-26 15:51 | 39.91493 | 35.96418 | 23184 ft | 408 kts | 102° |
| 2026-04-26 15:51 | 39.91021 | 36.00025 | 22985 ft | 400 kts | 102° |
| 2026-04-26 15:51 | 39.90556 | 36.03559 | 22722 ft | 388 kts | 102° |
| 2026-04-26 15:52 | 39.90112 | 36.06939 | 22421 ft | 372 kts | 102° |
| 2026-04-26 15:52 | 39.89681 | 36.10222 | 21866 ft | 364 kts | 102° |
| 2026-04-26 15:52 | 39.89260 | 36.13435 | 21236 ft | 359 kts | 102° |
| 2026-04-26 15:52 | 39.88983 | 36.15555 | 20806 ft | 357 kts | 102° |
| 2026-04-26 15:53 | 39.88419 | 36.19808 | 20307 ft | 355 kts | 102° |
| 2026-04-26 15:53 | 39.87997 | 36.22962 | 19945 ft | 353 kts | 102° |
| 2026-04-26 15:53 | 39.87574 | 36.26104 | 19575 ft | 351 kts | 102° |
| 2026-04-26 15:53 | 39.87151 | 36.29220 | 19200 ft | 349 kts | 102° |
| 2026-04-26 15:54 | 39.86751 | 36.32337 | 18830 ft | 348 kts | 97° |
| 2026-04-26 15:54 | 39.86715 | 36.35518 | 18466 ft | 347 kts | 86° |
| 2026-04-26 15:54 | 39.87124 | 36.38560 | 18094 ft | 346 kts | 74° |
| 2026-04-26 15:54 | 39.87974 | 36.41529 | 17728 ft | 344 kts | 66° |
| 2026-04-26 15:55 | 39.88943 | 36.44369 | 17359 ft | 343 kts | 66° |
| 2026-04-26 15:55 | 39.89906 | 36.47193 | 16850 ft | 339 kts | 66° |
| 2026-04-26 15:55 | 39.90856 | 36.49989 | 16213 ft | 337 kts | 66° |
| 2026-04-26 15:55 | 39.91796 | 36.52763 | 15573 ft | 334 kts | 66° |
| 2026-04-26 15:56 | 39.92730 | 36.55524 | 14953 ft | 331 kts | 66° |
| 2026-04-26 15:56 | 39.93649 | 36.58252 | 14335 ft | 328 kts | 66° |
| 2026-04-26 15:56 | 39.94562 | 36.60957 | 13721 ft | 324 kts | 66° |
| 2026-04-26 15:56 | 39.95453 | 36.63598 | 13108 ft | 322 kts | 66° |
| 2026-04-26 15:57 | 39.96314 | 36.66153 | 12539 ft | 319 kts | 66° |
| 2026-04-26 15:57 | 39.97220 | 36.68842 | 11926 ft | 315 kts | 66° |
| 2026-04-26 15:57 | 39.98069 | 36.71369 | 11345 ft | 312 kts | 66° |
| 2026-04-26 15:57 | 39.98643 | 36.73079 | 10944 ft | 310 kts | 66° |
| 2026-04-26 15:58 | 39.99499 | 36.75636 | 10376 ft | 306 kts | 66° |
| 2026-04-26 15:58 | 40.00618 | 36.78931 | 9970 ft | 299 kts | 65° |
| 2026-04-26 15:58 | 40.01460 | 36.81388 | 9945 ft | 288 kts | 66° |
| 2026-04-26 15:58 | 40.02268 | 36.83774 | 9949 ft | 284 kts | 65° |
| 2026-04-26 15:59 | 40.02993 | 36.86154 | 9938 ft | 283 kts | 75° |
| 2026-04-26 15:59 | 40.03282 | 36.88679 | 9862 ft | 280 kts | 90° |
| 2026-04-26 15:59 | 40.03051 | 36.91193 | 9536 ft | 280 kts | 106° |
| 2026-04-26 15:59 | 40.02667 | 36.92822 | 9057 ft | 286 kts | 109° |
| 2026-04-26 16:00 | 40.02010 | 36.95198 | 8728 ft | 274 kts | 119° |
| 2026-04-26 16:00 | 40.00819 | 36.96936 | 8667 ft | 245 kts | 151° |
| 2026-04-26 16:00 | 39.99265 | 36.97604 | 8497 ft | 228 kts | 183° |
| 2026-04-26 16:00 | 39.97771 | 36.97250 | 8349 ft | 212 kts | 198° |
| 2026-04-26 16:01 | 39.96358 | 36.96641 | 7863 ft | 214 kts | 199° |
| 2026-04-26 16:01 | 39.94995 | 36.96066 | 7720 ft | 195 kts | 198° |
| 2026-04-26 16:01 | 39.93749 | 36.95543 | 7615 ft | 182 kts | 199° |
| 2026-04-26 16:01 | 39.92577 | 36.95048 | 7460 ft | 175 kts | 198° |
| 2026-04-26 16:02 | 39.91419 | 36.94559 | 7176 ft | 175 kts | 198° |
| 2026-04-26 16:02 | 39.90283 | 36.94079 | 6897 ft | 167 kts | 197° |
| 2026-04-26 16:02 | 39.89224 | 36.93631 | 6671 ft | 156 kts | 197° |
| 2026-04-26 16:02 | 39.88551 | 36.93347 | 6514 ft | 152 kts | 196° |
| 2026-04-26 16:03 | 39.87212 | 36.92795 | 6209 ft | 149 kts | 196° |
| 2026-04-26 16:03 | 39.86225 | 36.92389 | 5972 ft | 149 kts | 195° |
| 2026-04-26 16:03 | 39.85245 | 36.91961 | 5742 ft | 148 kts | 197° |
| 2026-04-26 16:03 | 39.84269 | 36.91541 | 5564 ft | 148 kts | 196° |
| 2026-04-26 16:04 | 39.83286 | 36.91147 | 5352 ft | 148 kts | 196° |
| 2026-04-26 16:04 | 39.82329 | 36.90746 | 5244 ft | 132 kts | 197° |
| 2026-04-26 16:04 | 39.81615 | 36.90445 | 5240 ft | 83 kts | 198° |
| 2026-04-26 16:04 | 39.81179 | 36.90261 | 5245 ft | 59 kts | 198° |
| 2026-04-26 16:05 | 39.80816 | 36.90107 | 5250 ft | 52 kts | 198° |
| 2026-04-26 16:05 | 39.80512 | 36.89978 | 5244 ft | 32 kts | 197° |
| 2026-04-26 16:05 | 39.80340 | 36.89911 | 5244 ft | 22 kts | 198° |
| 2026-04-26 16:05 | 39.80213 | 36.89854 | 5246 ft | 17 kts | 199° |
| 2026-04-26 16:06 | 39.80116 | 36.89809 | 5244 ft | 8 kts | 207° |
| 2026-04-26 16:06 | 39.80087 | 36.89745 | 5245 ft | 8 kts | 267° |
| 2026-04-26 16:06 | 39.80098 | 36.89684 | 5247 ft | 6 kts | 284° |
| 2026-04-26 16:06 | 39.80111 | 36.89636 | 5248 ft | 6 kts | 289° |
| 2026-04-26 16:07 | 39.80128 | 36.89570 | 5248 ft | 9 kts | 288° |
| 2026-04-26 16:07 | 39.80151 | 36.89484 | 5243 ft | 8 kts | 299° |
| 2026-04-26 16:07 | 39.80195 | 36.89453 | 5242 ft | 7 kts | 314° |
| 2026-04-26 16:07 | 39.80213 | 36.89404 | 5242 ft | 2 kts | 289° |
| 2026-04-26 16:08 | 39.80213 | 36.89402 | 5242 ft | 0 kts | 289° |